AAL489 KORD-KDCA
Flight info
| Callsign | AAL489 |
|---|---|
| Flight time | 1h 18m |
| Altitude | 37000 |
| Route | MOBLE ADIME OTENS ANEWA JERRI NUSMM BUCKO FRDMM6 |
| Aircraft | A320/M-SDE3FGHIRWY/LB1 |
Departure
| Time | 2026-04-23 23:21 |
|---|---|
| Airport | Chicago O'Hare International Airport (KORD) |
Arrival
| Time | 2026-04-24 00:39 |
|---|---|
| Airport | Ronald Reagan Washington National Airport (KDCA) |
| Time | Latitude | Longitude | Altitude | Speed | Heading |
|---|---|---|---|---|---|
| 2026-04-23 22:52 | 41.97372 | -87.90090 | 669 ft | 0 kts | 90° |
| 2026-04-23 23:12 | 41.97372 | -87.90095 | 669 ft | 3 kts | 91° |
| 2026-04-23 23:13 | 41.97375 | -87.90130 | 669 ft | 4 kts | 114° |
| 2026-04-23 23:13 | 41.97390 | -87.90156 | 667 ft | 4 kts | 162° |
| 2026-04-23 23:13 | 41.97400 | -87.90159 | 667 ft | 0 kts | 180° |
| 2026-04-23 23:14 | 41.97397 | -87.90159 | 668 ft | 2 kts | 180° |
| 2026-04-23 23:15 | 41.97366 | -87.90160 | 669 ft | 9 kts | 182° |
| 2026-04-23 23:15 | 41.97277 | -87.90158 | 669 ft | 17 kts | 177° |
| 2026-04-23 23:15 | 41.97219 | -87.90155 | 669 ft | 7 kts | 178° |
| 2026-04-23 23:15 | 41.97201 | -87.90154 | 669 ft | 7 kts | 178° |
| 2026-04-23 23:16 | 41.97155 | -87.90133 | 669 ft | 7 kts | 166° |
| 2026-04-23 23:16 | 41.97099 | -87.90134 | 669 ft | 9 kts | 179° |
| 2026-04-23 23:16 | 41.97050 | -87.90125 | 669 ft | 9 kts | 163° |
| 2026-04-23 23:16 | 41.97025 | -87.90033 | 669 ft | 15 kts | 94° |
| 2026-04-23 23:17 | 41.97039 | -87.89872 | 669 ft | 20 kts | 85° |
| 2026-04-23 23:17 | 41.97037 | -87.89659 | 670 ft | 25 kts | 86° |
| 2026-04-23 23:17 | 41.97041 | -87.89433 | 669 ft | 23 kts | 89° |
| 2026-04-23 23:17 | 41.97041 | -87.89208 | 669 ft | 27 kts | 90° |
| 2026-04-23 23:18 | 41.97042 | -87.88985 | 668 ft | 23 kts | 90° |
| 2026-04-23 23:18 | 41.97042 | -87.88780 | 668 ft | 18 kts | 89° |
| 2026-04-23 23:18 | 41.97044 | -87.88613 | 669 ft | 18 kts | 93° |
| 2026-04-23 23:18 | 41.97045 | -87.88439 | 669 ft | 19 kts | 90° |
| 2026-04-23 23:19 | 41.97044 | -87.88254 | 669 ft | 20 kts | 91° |
| 2026-04-23 23:19 | 41.97043 | -87.88114 | 670 ft | 1 kts | 88° |
| 2026-04-23 23:19 | 41.97043 | -87.88107 | 670 ft | 1 kts | 88° |
| 2026-04-23 23:19 | 41.97039 | -87.88071 | 670 ft | 9 kts | 111° |
| 2026-04-23 23:20 | 41.96957 | -87.88030 | 672 ft | 20 kts | 197° |
| 2026-04-23 23:20 | 41.96751 | -87.88261 | 668 ft | 70 kts | 221° |
| 2026-04-23 23:20 | 41.96217 | -87.88891 | 670 ft | 132 kts | 222° |
| 2026-04-23 23:20 | 41.95470 | -87.89792 | 1095 ft | 146 kts | 218° |
| 2026-04-23 23:21 | 41.95052 | -87.90291 | 1478 ft | 148 kts | 215° |
| 2026-04-23 23:21 | 41.94392 | -87.90763 | 1957 ft | 145 kts | 190° |
| 2026-04-23 23:21 | 41.93393 | -87.90610 | 2459 ft | 154 kts | 158° |
| 2026-04-23 23:21 | 41.92575 | -87.89494 | 2697 ft | 192 kts | 120° |
| 2026-04-23 23:22 | 41.92383 | -87.87593 | 2985 ft | 224 kts | 91° |
| 2026-04-23 23:22 | 41.92530 | -87.85544 | 3766 ft | 219 kts | 91° |
| 2026-04-23 23:22 | 41.92678 | -87.83468 | 4314 ft | 232 kts | 93° |
| 2026-04-23 23:22 | 41.92778 | -87.81204 | 4672 ft | 255 kts | 94° |
| 2026-04-23 23:23 | 41.92855 | -87.78679 | 5106 ft | 277 kts | 94° |
| 2026-04-23 23:23 | 41.92928 | -87.76092 | 5833 ft | 285 kts | 93° |
| 2026-04-23 23:23 | 41.93002 | -87.73413 | 6639 ft | 289 kts | 92° |
| 2026-04-23 23:23 | 41.93071 | -87.70697 | 7449 ft | 293 kts | 94° |
| 2026-04-23 23:24 | 41.92745 | -87.68022 | 8239 ft | 290 kts | 112° |
| 2026-04-23 23:24 | 41.92108 | -87.65431 | 9061 ft | 294 kts | 112° |
| 2026-04-23 23:24 | 41.91451 | -87.62804 | 9846 ft | 299 kts | 112° |
| 2026-04-23 23:24 | 41.90776 | -87.60120 | 10390 ft | 312 kts | 111° |
| 2026-04-23 23:25 | 41.90050 | -87.57253 | 10629 ft | 335 kts | 111° |
| 2026-04-23 23:25 | 41.89538 | -87.55223 | 10938 ft | 345 kts | 111° |
| 2026-04-23 23:25 | 41.88748 | -87.52083 | 11112 ft | 367 kts | 111° |
| 2026-04-23 23:25 | 41.87906 | -87.48730 | 11242 ft | 389 kts | 110° |
| 2026-04-23 23:26 | 41.87022 | -87.45212 | 11469 ft | 405 kts | 110° |
| 2026-04-23 23:26 | 41.86116 | -87.41601 | 12009 ft | 411 kts | 110° |
| 2026-04-23 23:26 | 41.85198 | -87.37946 | 12604 ft | 415 kts | 110° |
| 2026-04-23 23:26 | 41.84270 | -87.34256 | 13203 ft | 419 kts | 110° |
| 2026-04-23 23:27 | 41.83334 | -87.30540 | 13798 ft | 423 kts | 110° |
| 2026-04-23 23:27 | 41.82400 | -87.26839 | 14307 ft | 427 kts | 110° |
| 2026-04-23 23:27 | 41.81442 | -87.23060 | 14827 ft | 430 kts | 110° |
| 2026-04-23 23:27 | 41.80475 | -87.19245 | 15327 ft | 434 kts | 110° |
| 2026-04-23 23:28 | 41.79499 | -87.15407 | 15839 ft | 437 kts | 110° |
| 2026-04-23 23:28 | 41.78515 | -87.11544 | 16315 ft | 440 kts | 109° |
| 2026-04-23 23:28 | 41.77532 | -87.07641 | 16794 ft | 443 kts | 109° |
| 2026-04-23 23:28 | 41.76553 | -87.03707 | 17242 ft | 447 kts | 109° |
| 2026-04-23 23:29 | 41.75570 | -86.99743 | 17689 ft | 450 kts | 109° |
| 2026-04-23 23:29 | 41.74579 | -86.95751 | 18129 ft | 453 kts | 109° |
| 2026-04-23 23:29 | 41.73579 | -86.91732 | 18471 ft | 457 kts | 109° |
| 2026-04-23 23:29 | 41.72567 | -86.87684 | 18828 ft | 460 kts | 109° |
| 2026-04-23 23:30 | 41.71545 | -86.83609 | 19152 ft | 464 kts | 109° |
| 2026-04-23 23:30 | 41.70512 | -86.79505 | 19495 ft | 466 kts | 109° |
| 2026-04-23 23:30 | 41.69472 | -86.75385 | 19827 ft | 469 kts | 109° |
| 2026-04-23 23:30 | 41.68427 | -86.71244 | 20167 ft | 471 kts | 109° |
| 2026-04-23 23:31 | 41.67378 | -86.67082 | 20502 ft | 473 kts | 109° |
| 2026-04-23 23:31 | 41.66324 | -86.62905 | 20810 ft | 475 kts | 109° |
| 2026-04-23 23:31 | 41.65264 | -86.58711 | 21116 ft | 477 kts | 109° |
| 2026-04-23 23:31 | 41.64196 | -86.54496 | 21402 ft | 480 kts | 110° |
| 2026-04-23 23:32 | 41.63117 | -86.50261 | 21695 ft | 483 kts | 110° |
| 2026-04-23 23:32 | 41.62029 | -86.46008 | 21976 ft | 485 kts | 110° |
| 2026-04-23 23:32 | 41.60935 | -86.41736 | 22242 ft | 487 kts | 110° |
| 2026-04-23 23:32 | 41.59836 | -86.37440 | 22512 ft | 489 kts | 110° |
| 2026-04-23 23:33 | 41.58732 | -86.33134 | 22769 ft | 491 kts | 110° |
| 2026-04-23 23:33 | 41.57620 | -86.28801 | 23010 ft | 493 kts | 110° |
| 2026-04-23 23:33 | 41.56505 | -86.24462 | 23253 ft | 495 kts | 110° |
| 2026-04-23 23:33 | 41.55382 | -86.20102 | 23490 ft | 497 kts | 110° |
| 2026-04-23 23:34 | 41.54255 | -86.15730 | 23666 ft | 499 kts | 110° |
| 2026-04-23 23:34 | 41.53120 | -86.11344 | 23843 ft | 501 kts | 110° |
| 2026-04-23 23:34 | 41.51978 | -86.06946 | 24016 ft | 502 kts | 110° |
| 2026-04-23 23:34 | 41.50830 | -86.02540 | 24277 ft | 502 kts | 110° |
| 2026-04-23 23:35 | 41.49684 | -85.98157 | 24586 ft | 500 kts | 110° |
| 2026-04-23 23:35 | 41.48542 | -85.93778 | 24851 ft | 500 kts | 110° |
| 2026-04-23 23:35 | 41.47400 | -85.89402 | 25129 ft | 499 kts | 110° |
| 2026-04-23 23:35 | 41.46262 | -85.85035 | 25401 ft | 499 kts | 110° |
| 2026-04-23 23:36 | 41.45122 | -85.80660 | 25680 ft | 499 kts | 110° |
| 2026-04-23 23:36 | 41.43981 | -85.76299 | 25967 ft | 498 kts | 111° |
| 2026-04-23 23:36 | 41.42838 | -85.71940 | 26258 ft | 498 kts | 111° |
| 2026-04-23 23:36 | 41.41690 | -85.67584 | 26557 ft | 498 kts | 111° |
| 2026-04-23 23:37 | 41.40539 | -85.63240 | 26853 ft | 498 kts | 111° |
| 2026-04-23 23:37 | 41.39400 | -85.58952 | 27152 ft | 497 kts | 111° |
| 2026-04-23 23:37 | 41.38233 | -85.54554 | 27466 ft | 497 kts | 111° |
| 2026-04-23 23:37 | 41.37084 | -85.50217 | 27785 ft | 497 kts | 111° |
| 2026-04-23 23:38 | 41.35935 | -85.45888 | 28105 ft | 496 kts | 111° |
| 2026-04-23 23:38 | 41.34782 | -85.41557 | 28420 ft | 496 kts | 111° |
| 2026-04-23 23:38 | 41.33626 | -85.37224 | 28688 ft | 497 kts | 111° |
| 2026-04-23 23:38 | 41.32466 | -85.32882 | 28980 ft | 498 kts | 111° |
| 2026-04-23 23:39 | 41.31305 | -85.28542 | 29275 ft | 498 kts | 111° |
| 2026-04-23 23:39 | 41.30145 | -85.24211 | 29604 ft | 498 kts | 111° |
| 2026-04-23 23:39 | 41.28996 | -85.19932 | 29920 ft | 498 kts | 111° |
| 2026-04-23 23:39 | 41.27834 | -85.15606 | 30210 ft | 497 kts | 111° |
| 2026-04-23 23:40 | 41.26668 | -85.11279 | 30511 ft | 496 kts | 111° |
| 2026-04-23 23:40 | 41.25504 | -85.06972 | 30818 ft | 495 kts | 111° |
| 2026-04-23 23:40 | 41.24338 | -85.02674 | 31101 ft | 494 kts | 111° |
| 2026-04-23 23:40 | 41.23171 | -84.98377 | 31336 ft | 495 kts | 111° |
| 2026-04-23 23:41 | 41.22001 | -84.94078 | 31618 ft | 495 kts | 111° |
| 2026-04-23 23:41 | 41.20832 | -84.89783 | 31916 ft | 494 kts | 111° |
| 2026-04-23 23:41 | 41.19668 | -84.85498 | 32234 ft | 493 kts | 111° |
| 2026-04-23 23:41 | 41.18507 | -84.81227 | 32549 ft | 491 kts | 111° |
| 2026-04-23 23:42 | 41.17345 | -84.76964 | 32857 ft | 490 kts | 111° |
| 2026-04-23 23:42 | 41.16184 | -84.72715 | 33157 ft | 489 kts | 111° |
| 2026-04-23 23:42 | 41.15021 | -84.68479 | 33477 ft | 488 kts | 111° |
| 2026-04-23 23:42 | 41.13856 | -84.64250 | 33775 ft | 488 kts | 111° |
| 2026-04-23 23:43 | 41.12690 | -84.60029 | 34041 ft | 487 kts | 111° |
| 2026-04-23 23:43 | 41.11525 | -84.55811 | 34295 ft | 487 kts | 111° |
| 2026-04-23 23:43 | 41.10363 | -84.51596 | 34545 ft | 486 kts | 111° |
| 2026-04-23 23:43 | 41.09204 | -84.47392 | 34786 ft | 486 kts | 111° |
| 2026-04-23 23:44 | 41.08041 | -84.43181 | 34903 ft | 486 kts | 111° |
| 2026-04-23 23:44 | 41.05712 | -84.34784 | 34943 ft | 485 kts | 111° |
| 2026-04-23 23:45 | 41.03372 | -84.26402 | 34946 ft | 486 kts | 111° |
| 2026-04-23 23:45 | 41.01026 | -84.18005 | 34950 ft | 486 kts | 111° |
| 2026-04-23 23:46 | 40.98677 | -84.09611 | 34952 ft | 486 kts | 111° |
| 2026-04-23 23:46 | 40.96309 | -84.01212 | 34954 ft | 489 kts | 111° |
| 2026-04-23 23:47 | 40.93923 | -83.92776 | 34953 ft | 490 kts | 111° |
| 2026-04-23 23:47 | 40.92730 | -83.88567 | 35056 ft | 490 kts | 111° |
| 2026-04-23 23:47 | 40.91551 | -83.84400 | 35038 ft | 491 kts | 111° |
| 2026-04-23 23:47 | 40.90342 | -83.80116 | 34909 ft | 490 kts | 111° |
| 2026-04-23 23:48 | 40.89160 | -83.75944 | 34947 ft | 494 kts | 111° |
| 2026-04-23 23:48 | 40.86730 | -83.67404 | 34943 ft | 498 kts | 111° |
| 2026-04-23 23:49 | 40.83050 | -83.54557 | 34942 ft | 499 kts | 111° |
| 2026-04-23 23:49 | 40.80580 | -83.45991 | 34945 ft | 500 kts | 111° |
| 2026-04-23 23:50 | 40.78106 | -83.37422 | 34951 ft | 500 kts | 111° |
| 2026-04-23 23:50 | 40.75630 | -83.28858 | 34956 ft | 500 kts | 111° |
| 2026-04-23 23:51 | 40.73151 | -83.20294 | 34958 ft | 500 kts | 111° |
| 2026-04-23 23:51 | 40.70656 | -83.11735 | 34965 ft | 500 kts | 111° |
| 2026-04-23 23:52 | 40.68146 | -83.03182 | 34955 ft | 501 kts | 111° |
| 2026-04-23 23:52 | 40.65632 | -82.94624 | 34956 ft | 501 kts | 111° |
| 2026-04-23 23:53 | 40.63119 | -82.86069 | 34958 ft | 501 kts | 111° |
| 2026-04-23 23:53 | 40.60600 | -82.77517 | 34970 ft | 501 kts | 111° |
| 2026-04-23 23:54 | 40.58066 | -82.68967 | 34973 ft | 502 kts | 111° |
| 2026-04-23 23:54 | 40.55524 | -82.60417 | 34975 ft | 502 kts | 111° |
| 2026-04-23 23:55 | 40.52983 | -82.51866 | 34978 ft | 502 kts | 111° |
| 2026-04-23 23:55 | 40.50434 | -82.43323 | 34979 ft | 502 kts | 111° |
| 2026-04-23 23:56 | 40.47872 | -82.34790 | 34984 ft | 502 kts | 111° |
| 2026-04-23 23:56 | 40.45314 | -82.26312 | 34983 ft | 503 kts | 111° |
| 2026-04-23 23:57 | 40.42741 | -82.17785 | 34982 ft | 503 kts | 111° |
| 2026-04-23 23:57 | 40.40161 | -82.09253 | 34982 ft | 503 kts | 111° |
| 2026-04-23 23:58 | 40.37569 | -82.00740 | 34982 ft | 503 kts | 111° |
| 2026-04-23 23:58 | 40.34971 | -81.92224 | 34983 ft | 503 kts | 111° |
| 2026-04-23 23:59 | 40.32371 | -81.83710 | 34986 ft | 503 kts | 111° |
| 2026-04-23 23:59 | 40.29765 | -81.75206 | 34989 ft | 503 kts | 111° |
| 2026-04-24 00:00 | 40.27154 | -81.66708 | 34986 ft | 503 kts | 111° |
| 2026-04-24 00:00 | 40.24535 | -81.58212 | 34993 ft | 503 kts | 111° |
| 2026-04-24 00:01 | 40.21907 | -81.49728 | 34994 ft | 503 kts | 111° |
| 2026-04-24 00:01 | 40.19267 | -81.41253 | 34992 ft | 503 kts | 111° |
| 2026-04-24 00:02 | 40.16622 | -81.32780 | 34991 ft | 503 kts | 111° |
| 2026-04-24 00:02 | 40.13982 | -81.24314 | 34984 ft | 503 kts | 111° |
| 2026-04-24 00:03 | 40.11337 | -81.15862 | 34987 ft | 503 kts | 111° |
| 2026-04-24 00:03 | 40.08679 | -81.07419 | 34991 ft | 502 kts | 111° |
| 2026-04-24 00:04 | 40.06012 | -80.98987 | 34991 ft | 502 kts | 111° |
| 2026-04-24 00:04 | 40.03345 | -80.90558 | 35003 ft | 502 kts | 111° |
| 2026-04-24 00:05 | 40.00681 | -80.82132 | 34997 ft | 502 kts | 111° |
| 2026-04-24 00:05 | 39.98006 | -80.73715 | 34994 ft | 502 kts | 111° |
| 2026-04-24 00:06 | 39.95315 | -80.65305 | 34993 ft | 502 kts | 111° |
| 2026-04-24 00:06 | 39.92618 | -80.56904 | 34991 ft | 503 kts | 111° |
| 2026-04-24 00:07 | 39.89925 | -80.48504 | 34995 ft | 503 kts | 111° |
| 2026-04-24 00:07 | 39.87220 | -80.40108 | 34994 ft | 503 kts | 111° |
| 2026-04-24 00:08 | 39.84505 | -80.31719 | 34983 ft | 503 kts | 111° |
| 2026-04-24 00:08 | 39.81788 | -80.23339 | 35005 ft | 503 kts | 111° |
| 2026-04-24 00:09 | 39.79069 | -80.14965 | 35029 ft | 503 kts | 111° |
| 2026-04-24 00:09 | 39.76342 | -80.06599 | 35024 ft | 503 kts | 111° |
| 2026-04-24 00:10 | 39.73626 | -79.98295 | 35026 ft | 503 kts | 111° |
| 2026-04-24 00:10 | 39.70882 | -79.89940 | 35025 ft | 503 kts | 111° |
| 2026-04-24 00:11 | 39.68574 | -79.82938 | 35028 ft | 503 kts | 111° |
| 2026-04-24 00:11 | 39.65819 | -79.74584 | 35030 ft | 504 kts | 111° |
| 2026-04-24 00:12 | 39.62603 | -79.64880 | 35015 ft | 504 kts | 111° |
| 2026-04-24 00:12 | 39.60284 | -79.57884 | 35016 ft | 504 kts | 111° |
| 2026-04-24 00:13 | 39.57506 | -79.49541 | 35027 ft | 504 kts | 111° |
| 2026-04-24 00:13 | 39.54725 | -79.41204 | 35038 ft | 504 kts | 111° |
| 2026-04-24 00:14 | 39.51940 | -79.32873 | 35033 ft | 504 kts | 111° |
| 2026-04-24 00:14 | 39.49145 | -79.24557 | 35023 ft | 503 kts | 112° |
| 2026-04-24 00:15 | 39.46342 | -79.16257 | 35020 ft | 503 kts | 112° |
| 2026-04-24 00:15 | 39.43540 | -79.07960 | 35010 ft | 503 kts | 112° |
| 2026-04-24 00:16 | 39.41276 | -79.01249 | 35013 ft | 503 kts | 111° |
| 2026-04-24 00:16 | 39.38463 | -78.92965 | 34499 ft | 503 kts | 112° |
| 2026-04-24 00:17 | 39.37146 | -78.89107 | 33467 ft | 508 kts | 112° |
| 2026-04-24 00:17 | 39.36078 | -78.85975 | 32620 ft | 510 kts | 112° |
| 2026-04-24 00:17 | 39.34582 | -78.81587 | 31470 ft | 511 kts | 112° |
| 2026-04-24 00:18 | 39.33146 | -78.77383 | 30430 ft | 511 kts | 113° |
| 2026-04-24 00:18 | 39.31713 | -78.73199 | 28996 ft | 509 kts | 113° |
| 2026-04-24 00:18 | 39.30280 | -78.69015 | 27309 ft | 510 kts | 113° |
| 2026-04-24 00:18 | 39.28840 | -78.64818 | 25731 ft | 510 kts | 114° |
| 2026-04-24 00:19 | 39.27408 | -78.60662 | 24459 ft | 504 kts | 114° |
| 2026-04-24 00:19 | 39.25993 | -78.56558 | 23215 ft | 498 kts | 114° |
| 2026-04-24 00:19 | 39.24602 | -78.52520 | 22271 ft | 485 kts | 114° |
| 2026-04-24 00:19 | 39.23247 | -78.48595 | 21415 ft | 472 kts | 114° |
| 2026-04-24 00:20 | 39.22014 | -78.45027 | 20661 ft | 462 kts | 114° |
| 2026-04-24 00:20 | 39.21048 | -78.42231 | 20059 ft | 458 kts | 114° |
| 2026-04-24 00:20 | 39.19752 | -78.38481 | 19246 ft | 457 kts | 113° |
| 2026-04-24 00:21 | 39.18457 | -78.34747 | 18449 ft | 456 kts | 113° |
| 2026-04-24 00:21 | 39.17157 | -78.31023 | 17607 ft | 454 kts | 114° |
| 2026-04-24 00:21 | 39.15850 | -78.27337 | 16852 ft | 450 kts | 114° |
| 2026-04-24 00:21 | 39.14562 | -78.23736 | 16148 ft | 446 kts | 114° |
| 2026-04-24 00:22 | 39.13253 | -78.20084 | 15489 ft | 441 kts | 114° |
| 2026-04-24 00:22 | 39.11989 | -78.16564 | 14811 ft | 437 kts | 115° |
| 2026-04-24 00:22 | 39.10721 | -78.13021 | 14252 ft | 432 kts | 115° |
| 2026-04-24 00:22 | 39.09651 | -78.09432 | 14048 ft | 416 kts | 108° |
| 2026-04-24 00:23 | 39.08777 | -78.05946 | 13834 ft | 403 kts | 108° |
| 2026-04-24 00:23 | 39.07932 | -78.02614 | 13588 ft | 391 kts | 108° |
| 2026-04-24 00:23 | 39.07127 | -77.99469 | 13334 ft | 380 kts | 108° |
| 2026-04-24 00:24 | 39.06703 | -77.97810 | 13205 ft | 375 kts | 108° |
| 2026-04-24 00:24 | 39.05895 | -77.94667 | 12951 ft | 366 kts | 108° |
| 2026-04-24 00:24 | 39.05099 | -77.91593 | 12692 ft | 357 kts | 108° |
| 2026-04-24 00:25 | 39.04322 | -77.88592 | 12435 ft | 350 kts | 108° |
| 2026-04-24 00:25 | 39.03566 | -77.85659 | 12178 ft | 342 kts | 108° |
| 2026-04-24 00:25 | 39.02827 | -77.82797 | 12018 ft | 332 kts | 108° |
| 2026-04-24 00:25 | 39.02109 | -77.80017 | 11798 ft | 325 kts | 108° |
| 2026-04-24 00:26 | 39.01404 | -77.77279 | 11561 ft | 321 kts | 108° |
| 2026-04-24 00:26 | 39.00705 | -77.74566 | 11319 ft | 318 kts | 108° |
| 2026-04-24 00:26 | 39.00009 | -77.71868 | 10998 ft | 318 kts | 108° |
| 2026-04-24 00:26 | 38.99313 | -77.69174 | 10600 ft | 318 kts | 108° |
| 2026-04-24 00:27 | 38.98614 | -77.66482 | 10213 ft | 317 kts | 108° |
| 2026-04-24 00:27 | 38.97794 | -77.63881 | 10002 ft | 312 kts | 114° |
| 2026-04-24 00:27 | 38.96897 | -77.61335 | 9633 ft | 312 kts | 114° |
| 2026-04-24 00:27 | 38.96012 | -77.58814 | 9357 ft | 308 kts | 114° |
| 2026-04-24 00:28 | 38.95681 | -77.57869 | 9261 ft | 309 kts | 113° |
| 2026-04-24 00:28 | 38.94821 | -77.55418 | 9013 ft | 310 kts | 113° |
| 2026-04-24 00:28 | 38.93938 | -77.52903 | 8767 ft | 308 kts | 114° |
| 2026-04-24 00:28 | 38.93056 | -77.50404 | 8527 ft | 306 kts | 114° |
| 2026-04-24 00:29 | 38.92180 | -77.47920 | 8280 ft | 305 kts | 114° |
| 2026-04-24 00:29 | 38.91308 | -77.45449 | 8071 ft | 303 kts | 114° |
| 2026-04-24 00:29 | 38.90374 | -77.43023 | 7820 ft | 305 kts | 117° |
| 2026-04-24 00:29 | 38.89359 | -77.40641 | 7412 ft | 303 kts | 118° |
| 2026-04-24 00:30 | 38.88320 | -77.38308 | 7081 ft | 299 kts | 119° |
| 2026-04-24 00:30 | 38.87289 | -77.36013 | 6770 ft | 296 kts | 119° |
| 2026-04-24 00:30 | 38.86270 | -77.33736 | 6454 ft | 293 kts | 119° |
| 2026-04-24 00:30 | 38.85264 | -77.31472 | 6129 ft | 291 kts | 118° |
| 2026-04-24 00:31 | 38.84271 | -77.29229 | 5971 ft | 289 kts | 119° |
| 2026-04-24 00:31 | 38.83269 | -77.26993 | 5982 ft | 289 kts | 119° |
| 2026-04-24 00:31 | 38.82263 | -77.24760 | 5923 ft | 289 kts | 119° |
| 2026-04-24 00:31 | 38.81252 | -77.22524 | 5485 ft | 289 kts | 120° |
| 2026-04-24 00:32 | 38.80244 | -77.20300 | 5037 ft | 288 kts | 120° |
| 2026-04-24 00:32 | 38.79233 | -77.18075 | 4539 ft | 289 kts | 120° |
| 2026-04-24 00:32 | 38.78225 | -77.15844 | 4040 ft | 289 kts | 120° |
| 2026-04-24 00:32 | 38.77107 | -77.13724 | 3614 ft | 286 kts | 133° |
| 2026-04-24 00:33 | 38.75570 | -77.12157 | 3200 ft | 282 kts | 152° |
| 2026-04-24 00:33 | 38.73757 | -77.11322 | 2918 ft | 272 kts | 171° |
| 2026-04-24 00:33 | 38.71888 | -77.11127 | 2503 ft | 268 kts | 179° |
| 2026-04-24 00:33 | 38.70051 | -77.11027 | 2068 ft | 261 kts | 178° |
| 2026-04-24 00:34 | 38.68307 | -77.10685 | 1969 ft | 247 kts | 158° |
| 2026-04-24 00:34 | 38.67015 | -77.09437 | 2015 ft | 231 kts | 126° |
| 2026-04-24 00:34 | 38.66464 | -77.07582 | 2018 ft | 215 kts | 96° |
| 2026-04-24 00:34 | 38.66570 | -77.05773 | 2016 ft | 202 kts | 73° |
| 2026-04-24 00:35 | 38.67173 | -77.04191 | 2021 ft | 196 kts | 51° |
| 2026-04-24 00:35 | 38.68157 | -77.03014 | 1982 ft | 194 kts | 30° |
| 2026-04-24 00:35 | 38.69393 | -77.02370 | 1983 ft | 192 kts | 8° |
| 2026-04-24 00:35 | 38.70716 | -77.02320 | 1987 ft | 191 kts | 354° |
| 2026-04-24 00:36 | 38.72038 | -77.02456 | 1985 ft | 190 kts | 353° |
| 2026-04-24 00:36 | 38.73360 | -77.02602 | 1974 ft | 191 kts | 353° |
| 2026-04-24 00:36 | 38.74677 | -77.02753 | 1840 ft | 193 kts | 354° |
| 2026-04-24 00:36 | 38.76051 | -77.02897 | 1627 ft | 199 kts | 353° |
| 2026-04-24 00:37 | 38.77407 | -77.03055 | 1463 ft | 193 kts | 353° |
| 2026-04-24 00:37 | 38.78723 | -77.03186 | 1103 ft | 187 kts | 354° |
| 2026-04-24 00:37 | 38.79973 | -77.03280 | 915 ft | 167 kts | 356° |
| 2026-04-24 00:37 | 38.81075 | -77.03355 | 701 ft | 154 kts | 355° |
| 2026-04-24 00:38 | 38.82113 | -77.03468 | 466 ft | 145 kts | 354° |
| 2026-04-24 00:38 | 38.83130 | -77.03571 | 263 ft | 149 kts | 355° |
| 2026-04-24 00:38 | 38.84162 | -77.03676 | 63 ft | 149 kts | 354° |
| 2026-04-24 00:38 | 38.85070 | -77.03769 | 24 ft | 96 kts | 355° |
| 2026-04-24 00:39 | 38.85445 | -77.03806 | 28 ft | 17 kts | 351° |
| 2026-04-24 00:39 | 38.85522 | -77.03876 | 27 ft | 12 kts | 307° |
| 2026-04-24 00:39 | 38.85558 | -77.03936 | 26 ft | 2 kts | 307° |
| 2026-04-24 00:39 | 38.85561 | -77.03953 | 25 ft | 2 kts | 273° |
| 2026-04-24 00:40 | 38.85562 | -77.03993 | 24 ft | 6 kts | 266° |
| 2026-04-24 00:40 | 38.85548 | -77.04024 | 25 ft | 3 kts | 224° |
| 2026-04-24 00:40 | 38.85538 | -77.04027 | 24 ft | 0 kts | 174° |
| 2026-04-24 00:40 | 38.85518 | -77.04018 | 24 ft | 6 kts | 163° |
| 2026-04-24 00:41 | 38.85472 | -77.04037 | 24 ft | 2 kts | 240° |
| 2026-04-24 00:41 | 38.85468 | -77.04049 | 27 ft | 3 kts | 243° |
| 2026-04-24 00:41 | 38.85455 | -77.04081 | 26 ft | 2 kts | 242° |
| 2026-04-24 00:41 | 38.85454 | -77.04082 | 26 ft | 0 kts | 242° |